sensor_id;sensor_type;location;lat;lon;timestamp;P1;durP1;ratioP1;P2;durP2;ratioP2
25381;SDS011;16307;42.896;20.874;2023-03-23T00:01:49;9.80;;;5.13;;
25381;SDS011;16307;42.896;20.874;2023-03-23T00:04:36;10.20;;;5.47;;
25381;SDS011;16307;42.896;20.874;2023-03-23T00:07:22;7.68;;;4.80;;
25381;SDS011;16307;42.896;20.874;2023-03-23T00:10:11;10.45;;;5.00;;
25381;SDS011;16307;42.896;20.874;2023-03-23T00:12:56;8.50;;;4.82;;
25381;SDS011;16307;42.896;20.874;2023-03-23T00:15:42;10.10;;;4.70;;
25381;SDS011;16307;42.896;20.874;2023-03-23T00:18:27;11.57;;;5.97;;
25381;SDS011;16307;42.896;20.874;2023-03-23T00:21:12;9.50;;;5.68;;
25381;SDS011;16307;42.896;20.874;2023-03-23T00:23:56;7.60;;;5.07;;
25381;SDS011;16307;42.896;20.874;2023-03-23T00:26:45;7.15;;;5.00;;
25381;SDS011;16307;42.896;20.874;2023-03-23T00:29:31;8.57;;;4.85;;
25381;SDS011;16307;42.896;20.874;2023-03-23T00:32:16;8.18;;;4.70;;
25381;SDS011;16307;42.896;20.874;2023-03-23T00:35:01;10.25;;;4.90;;
25381;SDS011;16307;42.896;20.874;2023-03-23T00:37:48;10.95;;;5.43;;
25381;SDS011;16307;42.896;20.874;2023-03-23T00:40:33;10.40;;;4.75;;
25381;SDS011;16307;42.896;20.874;2023-03-23T00:43:19;7.25;;;4.15;;
25381;SDS011;16307;42.896;20.874;2023-03-23T00:46:04;8.25;;;5.85;;
25381;SDS011;16307;42.896;20.874;2023-03-23T00:48:54;9.68;;;5.03;;
25381;SDS011;16307;42.896;20.874;2023-03-23T00:51:41;8.60;;;4.93;;
25381;SDS011;16307;42.896;20.874;2023-03-23T00:54:26;7.32;;;4.70;;
25381;SDS011;16307;42.896;20.874;2023-03-23T00:57:11;8.68;;;4.80;;
25381;SDS011;16307;42.896;20.874;2023-03-23T00:59:56;7.50;;;4.68;;
25381;SDS011;16307;42.896;20.874;2023-03-23T01:02:41;9.68;;;4.72;;
25381;SDS011;16307;42.896;20.874;2023-03-23T01:05:28;10.45;;;4.97;;
25381;SDS011;16307;42.896;20.874;2023-03-23T01:08:16;9.38;;;5.50;;
25381;SDS011;16307;42.896;20.874;2023-03-23T01:11:02;10.70;;;5.22;;
25381;SDS011;16307;42.896;20.874;2023-03-23T01:13:51;9.45;;;4.65;;
25381;SDS011;16307;42.896;20.874;2023-03-23T01:16:38;10.07;;;4.63;;
25381;SDS011;16307;42.896;20.874;2023-03-23T01:19:23;9.48;;;4.40;;
25381;SDS011;16307;42.896;20.874;2023-03-23T01:22:09;7.35;;;4.47;;
25381;SDS011;16307;42.896;20.874;2023-03-23T01:24:55;9.23;;;4.65;;
25381;SDS011;16307;42.896;20.874;2023-03-23T01:27:40;9.45;;;4.63;;
25381;SDS011;16307;42.896;20.874;2023-03-23T01:30:25;6.80;;;4.68;;
25381;SDS011;16307;42.896;20.874;2023-03-23T01:33:10;11.43;;;5.05;;
25381;SDS011;16307;42.896;20.874;2023-03-23T01:35:56;8.65;;;4.70;;
25381;SDS011;16307;42.896;20.874;2023-03-23T01:38:44;10.40;;;5.00;;
25381;SDS011;16307;42.896;20.874;2023-03-23T01:41:31;6.28;;;4.47;;
25381;SDS011;16307;42.896;20.874;2023-03-23T01:47:18;5.95;;;4.20;;
25381;SDS011;16307;42.896;20.874;2023-03-23T01:50:09;6.57;;;4.45;;
25381;SDS011;16307;42.896;20.874;2023-03-23T01:52:55;7.82;;;4.40;;
25381;SDS011;16307;42.896;20.874;2023-03-23T01:55:42;7.43;;;4.45;;
25381;SDS011;16307;42.896;20.874;2023-03-23T01:58:29;9.00;;;4.93;;
25381;SDS011;16307;42.896;20.874;2023-03-23T02:01:15;8.07;;;4.78;;
25381;SDS011;16307;42.896;20.874;2023-03-23T02:04:00;8.30;;;4.80;;
25381;SDS011;16307;42.896;20.874;2023-03-23T02:06:45;7.95;;;4.78;;
25381;SDS011;16307;42.896;20.874;2023-03-23T02:09:36;7.65;;;4.93;;
25381;SDS011;16307;42.896;20.874;2023-03-23T02:12:21;10.82;;;4.90;;
25381;SDS011;16307;42.896;20.874;2023-03-23T02:15:09;9.93;;;4.78;;
25381;SDS011;16307;42.896;20.874;2023-03-23T02:18:09;7.18;;;4.88;;
25381;SDS011;16307;42.896;20.874;2023-03-23T02:21:18;8.00;;;4.57;;
25381;SDS011;16307;42.896;20.874;2023-03-23T02:24:20;10.32;;;5.43;;
25381;SDS011;16307;42.896;20.874;2023-03-23T02:36:34;8.38;;;4.70;;
25381;SDS011;16307;42.896;20.874;2023-03-23T02:39:32;9.07;;;4.57;;
25381;SDS011;16307;42.896;20.874;2023-03-23T02:42:22;6.93;;;5.05;;
25381;SDS011;16307;42.896;20.874;2023-03-23T02:45:11;6.25;;;4.32;;
25381;SDS011;16307;42.896;20.874;2023-03-23T02:47:56;6.32;;;4.57;;
25381;SDS011;16307;42.896;20.874;2023-03-23T02:50:42;7.15;;;4.75;;
25381;SDS011;16307;42.896;20.874;2023-03-23T02:53:29;8.27;;;4.60;;
25381;SDS011;16307;42.896;20.874;2023-03-23T02:56:15;7.70;;;4.70;;
25381;SDS011;16307;42.896;20.874;2023-03-23T02:59:01;6.60;;;4.72;;
25381;SDS011;16307;42.896;20.874;2023-03-23T03:01:50;7.95;;;4.68;;
25381;SDS011;16307;42.896;20.874;2023-03-23T03:04:48;9.10;;;4.95;;
25381;SDS011;16307;42.896;20.874;2023-03-23T03:13:35;8.93;;;5.13;;
25381;SDS011;16307;42.896;20.874;2023-03-23T03:19:31;9.35;;;5.40;;
25381;SDS011;16307;42.896;20.874;2023-03-23T03:22:18;8.48;;;5.45;;
25381;SDS011;16307;42.896;20.874;2023-03-23T03:25:05;8.07;;;4.97;;
25381;SDS011;16307;42.896;20.874;2023-03-23T03:27:51;10.13;;;4.90;;
25381;SDS011;16307;42.896;20.874;2023-03-23T03:30:52;7.75;;;4.82;;
25381;SDS011;16307;42.896;20.874;2023-03-23T03:33:40;8.50;;;5.03;;
25381;SDS011;16307;42.896;20.874;2023-03-23T03:36:26;6.50;;;4.55;;
25381;SDS011;16307;42.896;20.874;2023-03-23T03:39:13;11.43;;;4.72;;
25381;SDS011;16307;42.896;20.874;2023-03-23T03:42:01;5.57;;;4.57;;
25381;SDS011;16307;42.896;20.874;2023-03-23T03:44:46;7.20;;;5.15;;
25381;SDS011;16307;42.896;20.874;2023-03-23T03:47:31;7.72;;;5.07;;
25381;SDS011;16307;42.896;20.874;2023-03-23T03:50:16;9.55;;;5.10;;
25381;SDS011;16307;42.896;20.874;2023-03-23T03:53:01;9.98;;;5.45;;
25381;SDS011;16307;42.896;20.874;2023-03-23T03:55:46;7.05;;;5.05;;
25381;SDS011;16307;42.896;20.874;2023-03-23T03:58:34;11.70;;;5.35;;
25381;SDS011;16307;42.896;20.874;2023-03-23T04:04:22;9.48;;;5.25;;
25381;SDS011;16307;42.896;20.874;2023-03-23T04:07:07;8.52;;;5.50;;
25381;SDS011;16307;42.896;20.874;2023-03-23T04:09:57;10.18;;;5.20;;
25381;SDS011;16307;42.896;20.874;2023-03-23T04:12:42;12.80;;;5.70;;
25381;SDS011;16307;42.896;20.874;2023-03-23T04:15:53;9.05;;;5.82;;
25381;SDS011;16307;42.896;20.874;2023-03-23T04:18:38;9.13;;;5.43;;
25381;SDS011;16307;42.896;20.874;2023-03-23T04:21:23;10.75;;;5.68;;
25381;SDS011;16307;42.896;20.874;2023-03-23T04:24:17;9.80;;;5.80;;
25381;SDS011;16307;42.896;20.874;2023-03-23T04:27:06;10.40;;;6.15;;
25381;SDS011;16307;42.896;20.874;2023-03-23T04:29:52;8.93;;;5.45;;
25381;SDS011;16307;42.896;20.874;2023-03-23T04:32:57;9.68;;;5.40;;
25381;SDS011;16307;42.896;20.874;2023-03-23T04:35:45;8.65;;;5.22;;
25381;SDS011;16307;42.896;20.874;2023-03-23T04:38:39;8.05;;;5.20;;
25381;SDS011;16307;42.896;20.874;2023-03-23T04:41:39;9.60;;;5.22;;
25381;SDS011;16307;42.896;20.874;2023-03-23T04:44:47;9.15;;;5.82;;
25381;SDS011;16307;42.896;20.874;2023-03-23T04:47:42;9.40;;;6.07;;
25381;SDS011;16307;42.896;20.874;2023-03-23T04:50:38;12.95;;;6.32;;
25381;SDS011;16307;42.896;20.874;2023-03-23T04:53:34;13.02;;;6.20;;
25381;SDS011;16307;42.896;20.874;2023-03-23T04:56:20;9.75;;;5.65;;
25381;SDS011;16307;42.896;20.874;2023-03-23T04:59:06;10.52;;;6.40;;
25381;SDS011;16307;42.896;20.874;2023-03-23T05:01:54;12.30;;;6.55;;
25381;SDS011;16307;42.896;20.874;2023-03-23T05:04:41;10.70;;;5.72;;
25381;SDS011;16307;42.896;20.874;2023-03-23T05:07:30;10.65;;;6.68;;
25381;SDS011;16307;42.896;20.874;2023-03-23T05:10:17;12.48;;;6.88;;
25381;SDS011;16307;42.896;20.874;2023-03-23T05:13:03;10.13;;;6.55;;
25381;SDS011;16307;42.896;20.874;2023-03-23T05:15:47;12.05;;;6.50;;
25381;SDS011;16307;42.896;20.874;2023-03-23T05:18:33;15.63;;;6.85;;
25381;SDS011;16307;42.896;20.874;2023-03-23T05:21:20;11.25;;;6.50;;
25381;SDS011;16307;42.896;20.874;2023-03-23T05:24:10;9.98;;;6.10;;
25381;SDS011;16307;42.896;20.874;2023-03-23T05:26:56;10.48;;;6.70;;
25381;SDS011;16307;42.896;20.874;2023-03-23T05:29:48;9.35;;;6.03;;
25381;SDS011;16307;42.896;20.874;2023-03-23T05:32:33;12.05;;;6.78;;
25381;SDS011;16307;42.896;20.874;2023-03-23T05:35:35;11.75;;;6.80;;
25381;SDS011;16307;42.896;20.874;2023-03-23T05:38:21;15.40;;;7.43;;
25381;SDS011;16307;42.896;20.874;2023-03-23T05:41:07;10.25;;;6.75;;
25381;SDS011;16307;42.896;20.874;2023-03-23T05:43:57;10.18;;;6.78;;
25381;SDS011;16307;42.896;20.874;2023-03-23T05:46:51;11.93;;;7.18;;
25381;SDS011;16307;42.896;20.874;2023-03-23T05:49:36;12.30;;;6.97;;
25381;SDS011;16307;42.896;20.874;2023-03-23T05:52:25;14.77;;;7.20;;
25381;SDS011;16307;42.896;20.874;2023-03-23T05:55:11;17.10;;;8.60;;
25381;SDS011;16307;42.896;20.874;2023-03-23T05:57:59;22.23;;;9.05;;
25381;SDS011;16307;42.896;20.874;2023-03-23T06:00:50;18.55;;;9.55;;
25381;SDS011;16307;42.896;20.874;2023-03-23T06:03:42;21.40;;;10.85;;
25381;SDS011;16307;42.896;20.874;2023-03-23T06:06:37;21.55;;;8.65;;
25381;SDS011;16307;42.896;20.874;2023-03-23T06:09:26;22.27;;;9.43;;
25381;SDS011;16307;42.896;20.874;2023-03-23T06:12:35;21.05;;;9.48;;
25381;SDS011;16307;42.896;20.874;2023-03-23T06:15:44;20.85;;;11.00;;
25381;SDS011;16307;42.896;20.874;2023-03-23T06:19:03;17.33;;;9.27;;
25381;SDS011;16307;42.896;20.874;2023-03-23T06:21:52;14.95;;;7.78;;
25381;SDS011;16307;42.896;20.874;2023-03-23T06:24:59;13.45;;;7.32;;
25381;SDS011;16307;42.896;20.874;2023-03-23T06:27:52;15.82;;;7.40;;
25381;SDS011;16307;42.896;20.874;2023-03-23T06:30:38;13.75;;;7.20;;
25381;SDS011;16307;42.896;20.874;2023-03-23T06:33:23;16.63;;;7.20;;
25381;SDS011;16307;42.896;20.874;2023-03-23T06:36:29;9.57;;;6.47;;
25381;SDS011;16307;42.896;20.874;2023-03-23T06:39:25;11.10;;;6.40;;
25381;SDS011;16307;42.896;20.874;2023-03-23T06:42:44;13.43;;;6.70;;
25381;SDS011;16307;42.896;20.874;2023-03-23T06:45:48;12.77;;;6.57;;
25381;SDS011;16307;42.896;20.874;2023-03-23T06:49:02;13.82;;;7.53;;
25381;SDS011;16307;42.896;20.874;2023-03-23T06:51:56;10.55;;;6.38;;
25381;SDS011;16307;42.896;20.874;2023-03-23T06:54:42;9.65;;;6.28;;
25381;SDS011;16307;42.896;20.874;2023-03-23T06:57:29;9.65;;;6.18;;
25381;SDS011;16307;42.896;20.874;2023-03-23T07:00:15;9.88;;;6.50;;
25381;SDS011;16307;42.896;20.874;2023-03-23T07:03:01;9.68;;;5.75;;
25381;SDS011;16307;42.896;20.874;2023-03-23T07:05:47;9.85;;;6.32;;
25381;SDS011;16307;42.896;20.874;2023-03-23T07:08:34;11.88;;;5.75;;
25381;SDS011;16307;42.896;20.874;2023-03-23T07:11:20;9.07;;;6.00;;
25381;SDS011;16307;42.896;20.874;2023-03-23T07:14:05;12.15;;;6.50;;
25381;SDS011;16307;42.896;20.874;2023-03-23T07:16:50;18.73;;;6.80;;
25381;SDS011;16307;42.896;20.874;2023-03-23T07:19:35;13.55;;;5.63;;
25381;SDS011;16307;42.896;20.874;2023-03-23T07:22:21;11.77;;;6.47;;
25381;SDS011;16307;42.896;20.874;2023-03-23T07:25:15;11.02;;;5.60;;
25381;SDS011;16307;42.896;20.874;2023-03-23T07:28:11;8.95;;;5.47;;
25381;SDS011;16307;42.896;20.874;2023-03-23T07:30:56;10.18;;;5.53;;
25381;SDS011;16307;42.896;20.874;2023-03-23T07:33:41;10.98;;;5.50;;
25381;SDS011;16307;42.896;20.874;2023-03-23T07:36:26;11.55;;;5.95;;
25381;SDS011;16307;42.896;20.874;2023-03-23T07:39:12;15.00;;;6.78;;
25381;SDS011;16307;42.896;20.874;2023-03-23T07:41:58;12.55;;;5.85;;
25381;SDS011;16307;42.896;20.874;2023-03-23T07:44:59;8.95;;;5.22;;
25381;SDS011;16307;42.896;20.874;2023-03-23T07:47:45;6.25;;;4.95;;
25381;SDS011;16307;42.896;20.874;2023-03-23T07:50:29;9.07;;;5.55;;
25381;SDS011;16307;42.896;20.874;2023-03-23T07:53:15;7.63;;;5.00;;
25381;SDS011;16307;42.896;20.874;2023-03-23T07:56:03;12.00;;;4.70;;
25381;SDS011;16307;42.896;20.874;2023-03-23T07:59:09;8.40;;;4.80;;
25381;SDS011;16307;42.896;20.874;2023-03-23T08:01:56;8.10;;;5.30;;
25381;SDS011;16307;42.896;20.874;2023-03-23T08:04:59;9.80;;;5.78;;
25381;SDS011;16307;42.896;20.874;2023-03-23T08:07:52;11.32;;;6.38;;
25381;SDS011;16307;42.896;20.874;2023-03-23T08:11:02;11.18;;;6.50;;
25381;SDS011;16307;42.896;20.874;2023-03-23T08:14:19;17.30;;;8.20;;
25381;SDS011;16307;42.896;20.874;2023-03-23T08:17:19;14.25;;;8.18;;
25381;SDS011;16307;42.896;20.874;2023-03-23T08:20:23;14.40;;;7.55;;
25381;SDS011;16307;42.896;20.874;2023-03-23T08:23:19;13.18;;;7.22;;
25381;SDS011;16307;42.896;20.874;2023-03-23T08:26:13;14.30;;;8.38;;
25381;SDS011;16307;42.896;20.874;2023-03-23T08:29:22;21.52;;;9.30;;
25381;SDS011;16307;42.896;20.874;2023-03-23T08:32:32;14.10;;;8.13;;
25381;SDS011;16307;42.896;20.874;2023-03-23T08:35:36;17.90;;;8.65;;
25381;SDS011;16307;42.896;20.874;2023-03-23T08:38:32;16.58;;;8.43;;
25381;SDS011;16307;42.896;20.874;2023-03-23T08:41:40;23.15;;;8.48;;
25381;SDS011;16307;42.896;20.874;2023-03-23T08:45:00;14.05;;;7.40;;
25381;SDS011;16307;42.896;20.874;2023-03-23T08:48:04;19.73;;;9.23;;
25381;SDS011;16307;42.896;20.874;2023-03-23T08:51:08;15.65;;;8.82;;
25381;SDS011;16307;42.896;20.874;2023-03-23T08:54:22;13.15;;;7.30;;
25381;SDS011;16307;42.896;20.874;2023-03-23T08:57:27;16.15;;;8.40;;
25381;SDS011;16307;42.896;20.874;2023-03-23T09:00:25;15.23;;;8.93;;
25381;SDS011;16307;42.896;20.874;2023-03-23T09:03:23;12.55;;;7.35;;
25381;SDS011;16307;42.896;20.874;2023-03-23T09:06:28;12.60;;;7.97;;
25381;SDS011;16307;42.896;20.874;2023-03-23T09:09:13;17.73;;;8.57;;
25381;SDS011;16307;42.896;20.874;2023-03-23T09:11:58;25.80;;;7.78;;
25381;SDS011;16307;42.896;20.874;2023-03-23T09:14:43;12.95;;;7.05;;
25381;SDS011;16307;42.896;20.874;2023-03-23T09:17:28;22.90;;;9.63;;
25381;SDS011;16307;42.896;20.874;2023-03-23T09:20:14;13.50;;;6.88;;
25381;SDS011;16307;42.896;20.874;2023-03-23T09:23:00;12.73;;;7.60;;
25381;SDS011;16307;42.896;20.874;2023-03-23T09:25:45;16.20;;;8.93;;
25381;SDS011;16307;42.896;20.874;2023-03-23T09:28:31;12.70;;;6.72;;
25381;SDS011;16307;42.896;20.874;2023-03-23T09:31:16;10.00;;;6.50;;
25381;SDS011;16307;42.896;20.874;2023-03-23T09:34:01;16.20;;;7.85;;
25381;SDS011;16307;42.896;20.874;2023-03-23T09:36:48;11.32;;;6.22;;
25381;SDS011;16307;42.896;20.874;2023-03-23T09:39:33;10.20;;;5.90;;
25381;SDS011;16307;42.896;20.874;2023-03-23T09:42:24;9.40;;;5.80;;
25381;SDS011;16307;42.896;20.874;2023-03-23T09:49:08;11.20;;;6.10;;
25381;SDS011;16307;42.896;20.874;2023-03-23T09:54:39;9.23;;;4.82;;
25381;SDS011;16307;42.896;20.874;2023-03-23T09:57:30;11.75;;;3.78;;
25381;SDS011;16307;42.896;20.874;2023-03-23T10:00:23;7.10;;;4.35;;
25381;SDS011;16307;42.896;20.874;2023-03-23T10:03:17;4.55;;;3.10;;
25381;SDS011;16307;42.896;20.874;2023-03-23T10:06:04;8.32;;;2.97;;
25381;SDS011;16307;42.896;20.874;2023-03-23T10:08:51;5.82;;;3.28;;
25381;SDS011;16307;42.896;20.874;2023-03-23T10:14:43;8.80;;;3.72;;
25381;SDS011;16307;42.896;20.874;2023-03-23T10:17:58;14.50;;;4.47;;
25381;SDS011;16307;42.896;20.874;2023-03-23T10:21:05;4.50;;;3.00;;
25381;SDS011;16307;42.896;20.874;2023-03-23T10:24:00;4.32;;;2.50;;
25381;SDS011;16307;42.896;20.874;2023-03-23T10:29:53;5.90;;;3.22;;
25381;SDS011;16307;42.896;20.874;2023-03-23T10:32:44;5.88;;;3.30;;
25381;SDS011;16307;42.896;20.874;2023-03-23T10:35:43;6.70;;;3.40;;
25381;SDS011;16307;42.896;20.874;2023-03-23T10:38:34;5.45;;;3.70;;
25381;SDS011;16307;42.896;20.874;2023-03-23T10:41:21;7.10;;;3.80;;
25381;SDS011;16307;42.896;20.874;2023-03-23T10:44:16;7.78;;;3.83;;
25381;SDS011;16307;42.896;20.874;2023-03-23T10:49:53;10.32;;;4.82;;
25381;SDS011;16307;42.896;20.874;2023-03-23T10:52:41;8.27;;;5.32;;
25381;SDS011;16307;42.896;20.874;2023-03-23T10:55:37;10.02;;;5.20;;
25381;SDS011;16307;42.896;20.874;2023-03-23T10:58:26;9.25;;;4.80;;
25381;SDS011;16307;42.896;20.874;2023-03-23T11:01:13;8.10;;;3.72;;
25381;SDS011;16307;42.896;20.874;2023-03-23T11:03:59;9.68;;;3.63;;
25381;SDS011;16307;42.896;20.874;2023-03-23T11:06:45;6.95;;;3.40;;
25381;SDS011;16307;42.896;20.874;2023-03-23T11:09:34;5.85;;;3.55;;
25381;SDS011;16307;42.896;20.874;2023-03-23T11:12:23;9.15;;;4.57;;
25381;SDS011;16307;42.896;20.874;2023-03-23T11:15:25;6.50;;;3.03;;
25381;SDS011;16307;42.896;20.874;2023-03-23T11:18:19;7.95;;;3.63;;
25381;SDS011;16307;42.896;20.874;2023-03-23T11:21:06;12.35;;;3.38;;
25381;SDS011;16307;42.896;20.874;2023-03-23T11:23:53;4.72;;;2.70;;
25381;SDS011;16307;42.896;20.874;2023-03-23T11:26:39;9.25;;;3.38;;
25381;SDS011;16307;42.896;20.874;2023-03-23T11:29:27;5.53;;;3.55;;
25381;SDS011;16307;42.896;20.874;2023-03-23T11:32:14;6.40;;;3.80;;
25381;SDS011;16307;42.896;20.874;2023-03-23T11:35:00;5.63;;;3.22;;
25381;SDS011;16307;42.896;20.874;2023-03-23T11:37:53;5.93;;;3.58;;
25381;SDS011;16307;42.896;20.874;2023-03-23T11:40:44;9.85;;;3.88;;
25381;SDS011;16307;42.896;20.874;2023-03-23T11:43:34;4.10;;;3.05;;
25381;SDS011;16307;42.896;20.874;2023-03-23T11:46:22;8.38;;;3.40;;
25381;SDS011;16307;42.896;20.874;2023-03-23T11:49:25;5.45;;;3.63;;
25381;SDS011;16307;42.896;20.874;2023-03-23T11:52:21;4.68;;;2.80;;
25381;SDS011;16307;42.896;20.874;2023-03-23T11:58:11;7.38;;;2.83;;
25381;SDS011;16307;42.896;20.874;2023-03-23T12:03:57;10.85;;;3.70;;
25381;SDS011;16307;42.896;20.874;2023-03-23T12:06:51;7.07;;;3.15;;
25381;SDS011;16307;42.896;20.874;2023-03-23T12:10:06;10.23;;;5.13;;
25381;SDS011;16307;42.896;20.874;2023-03-23T12:31:24;4.03;;;2.60;;
25381;SDS011;16307;42.896;20.874;2023-03-23T12:34:19;5.53;;;3.42;;
25381;SDS011;16307;42.896;20.874;2023-03-23T12:49:45;4.25;;;2.72;;
25381;SDS011;16307;42.896;20.874;2023-03-23T12:53:11;8.45;;;5.00;;
25381;SDS011;16307;42.896;20.874;2023-03-23T12:59:16;5.65;;;3.55;;
25381;SDS011;16307;42.896;20.874;2023-03-23T13:05:11;9.10;;;4.28;;
25381;SDS011;16307;42.896;20.874;2023-03-23T13:08:16;6.78;;;3.38;;
25381;SDS011;16307;42.896;20.874;2023-03-23T13:11:04;4.38;;;3.10;;
25381;SDS011;16307;42.896;20.874;2023-03-23T13:17:26;9.55;;;4.20;;
25381;SDS011;16307;42.896;20.874;2023-03-23T13:23:18;6.07;;;3.22;;
25381;SDS011;16307;42.896;20.874;2023-03-23T13:26:07;9.52;;;3.83;;
25381;SDS011;16307;42.896;20.874;2023-03-23T13:29:01;5.70;;;3.47;;
25381;SDS011;16307;42.896;20.874;2023-03-23T13:32:09;10.55;;;3.97;;
25381;SDS011;16307;42.896;20.874;2023-03-23T13:34:56;8.27;;;4.35;;
25381;SDS011;16307;42.896;20.874;2023-03-23T13:37:41;8.63;;;3.47;;
25381;SDS011;16307;42.896;20.874;2023-03-23T13:40:30;6.50;;;4.20;;
25381;SDS011;16307;42.896;20.874;2023-03-23T13:43:24;4.70;;;3.28;;
25381;SDS011;16307;42.896;20.874;2023-03-23T13:46:13;6.78;;;3.55;;
25381;SDS011;16307;42.896;20.874;2023-03-23T13:49:19;9.00;;;3.60;;
25381;SDS011;16307;42.896;20.874;2023-03-23T13:52:17;9.32;;;4.97;;
25381;SDS011;16307;42.896;20.874;2023-03-23T14:00:47;13.85;;;7.55;;
25381;SDS011;16307;42.896;20.874;2023-03-23T14:03:38;8.98;;;4.50;;
25381;SDS011;16307;42.896;20.874;2023-03-23T14:06:25;11.07;;;3.97;;
25381;SDS011;16307;42.896;20.874;2023-03-23T14:12:26;6.97;;;4.00;;
25381;SDS011;16307;42.896;20.874;2023-03-23T14:15:12;6.50;;;3.33;;
25381;SDS011;16307;42.896;20.874;2023-03-23T14:17:57;8.48;;;4.82;;
25381;SDS011;16307;42.896;20.874;2023-03-23T14:20:46;12.00;;;7.78;;
25381;SDS011;16307;42.896;20.874;2023-03-23T14:23:34;10.38;;;4.57;;
25381;SDS011;16307;42.896;20.874;2023-03-23T14:26:19;9.13;;;4.35;;
25381;SDS011;16307;42.896;20.874;2023-03-23T14:29:05;7.03;;;4.10;;
25381;SDS011;16307;42.896;20.874;2023-03-23T14:31:53;11.27;;;5.18;;
25381;SDS011;16307;42.896;20.874;2023-03-23T14:34:39;8.45;;;4.88;;
25381;SDS011;16307;42.896;20.874;2023-03-23T14:37:24;13.85;;;8.05;;
25381;SDS011;16307;42.896;20.874;2023-03-23T14:40:17;19.65;;;10.48;;
25381;SDS011;16307;42.896;20.874;2023-03-23T14:43:02;12.15;;;7.80;;
25381;SDS011;16307;42.896;20.874;2023-03-23T14:45:51;11.30;;;5.15;;
25381;SDS011;16307;42.896;20.874;2023-03-23T14:48:37;9.60;;;5.00;;
25381;SDS011;16307;42.896;20.874;2023-03-23T14:51:22;9.45;;;4.20;;
25381;SDS011;16307;42.896;20.874;2023-03-23T14:54:07;8.60;;;3.90;;
25381;SDS011;16307;42.896;20.874;2023-03-23T14:56:53;8.75;;;4.82;;
25381;SDS011;16307;42.896;20.874;2023-03-23T14:59:42;8.95;;;4.25;;
25381;SDS011;16307;42.896;20.874;2023-03-23T15:05:26;7.10;;;3.33;;
25381;SDS011;16307;42.896;20.874;2023-03-23T15:08:18;11.10;;;3.47;;
25381;SDS011;16307;42.896;20.874;2023-03-23T15:14:07;7.28;;;4.47;;
25381;SDS011;16307;42.896;20.874;2023-03-23T15:16:58;8.30;;;3.60;;
25381;SDS011;16307;42.896;20.874;2023-03-23T15:19:44;14.18;;;4.30;;
25381;SDS011;16307;42.896;20.874;2023-03-23T15:22:30;7.47;;;3.85;;
25381;SDS011;16307;42.896;20.874;2023-03-23T15:25:20;5.38;;;3.80;;
25381;SDS011;16307;42.896;20.874;2023-03-23T15:28:12;11.70;;;4.27;;
25381;SDS011;16307;42.896;20.874;2023-03-23T15:31:01;8.40;;;4.03;;
25381;SDS011;16307;42.896;20.874;2023-03-23T15:33:48;10.13;;;5.53;;
25381;SDS011;16307;42.896;20.874;2023-03-23T15:36:37;13.73;;;6.13;;
25381;SDS011;16307;42.896;20.874;2023-03-23T15:39:22;15.77;;;7.00;;
25381;SDS011;16307;42.896;20.874;2023-03-23T15:42:07;9.45;;;5.68;;
25381;SDS011;16307;42.896;20.874;2023-03-23T15:48:04;8.90;;;4.63;;
25381;SDS011;16307;42.896;20.874;2023-03-23T15:50:55;13.40;;;5.78;;
25381;SDS011;16307;42.896;20.874;2023-03-23T15:53:40;16.58;;;8.80;;
25381;SDS011;16307;42.896;20.874;2023-03-23T15:56:25;17.77;;;7.50;;
25381;SDS011;16307;42.896;20.874;2023-03-23T15:59:10;15.52;;;6.55;;
25381;SDS011;16307;42.896;20.874;2023-03-23T16:01:56;10.52;;;5.90;;
25381;SDS011;16307;42.896;20.874;2023-03-23T16:04:42;11.30;;;5.40;;
25381;SDS011;16307;42.896;20.874;2023-03-23T16:07:32;13.05;;;5.90;;
25381;SDS011;16307;42.896;20.874;2023-03-23T16:10:19;13.30;;;7.25;;
25381;SDS011;16307;42.896;20.874;2023-03-23T16:13:08;18.92;;;10.27;;
25381;SDS011;16307;42.896;20.874;2023-03-23T16:15:55;17.50;;;8.15;;
25381;SDS011;16307;42.896;20.874;2023-03-23T16:18:41;16.83;;;7.95;;
25381;SDS011;16307;42.896;20.874;2023-03-23T16:21:26;16.88;;;8.40;;
25381;SDS011;16307;42.896;20.874;2023-03-23T16:24:12;16.52;;;9.18;;
25381;SDS011;16307;42.896;20.874;2023-03-23T16:26:58;19.27;;;8.70;;
25381;SDS011;16307;42.896;20.874;2023-03-23T16:29:44;15.38;;;8.43;;
25381;SDS011;16307;42.896;20.874;2023-03-23T16:32:48;25.08;;;9.98;;
25381;SDS011;16307;42.896;20.874;2023-03-23T16:35:36;18.15;;;9.75;;
25381;SDS011;16307;42.896;20.874;2023-03-23T16:38:22;21.48;;;8.65;;
25381;SDS011;16307;42.896;20.874;2023-03-23T16:41:08;25.58;;;10.45;;
25381;SDS011;16307;42.896;20.874;2023-03-23T16:43:53;21.40;;;10.30;;
25381;SDS011;16307;42.896;20.874;2023-03-23T16:46:40;22.00;;;9.45;;
25381;SDS011;16307;42.896;20.874;2023-03-23T16:49:25;18.05;;;10.10;;
25381;SDS011;16307;42.896;20.874;2023-03-23T16:52:11;21.08;;;10.65;;
25381;SDS011;16307;42.896;20.874;2023-03-23T16:54:57;24.95;;;10.90;;
25381;SDS011;16307;42.896;20.874;2023-03-23T16:57:43;25.73;;;12.70;;
25381;SDS011;16307;42.896;20.874;2023-03-23T17:00:29;25.80;;;12.05;;
25381;SDS011;16307;42.896;20.874;2023-03-23T17:03:17;24.70;;;12.48;;
25381;SDS011;16307;42.896;20.874;2023-03-23T17:06:03;23.20;;;12.55;;
25381;SDS011;16307;42.896;20.874;2023-03-23T17:08:50;32.28;;;15.85;;
25381;SDS011;16307;42.896;20.874;2023-03-23T17:11:36;34.60;;;16.55;;
25381;SDS011;16307;42.896;20.874;2023-03-23T17:14:22;40.78;;;21.38;;
25381;SDS011;16307;42.896;20.874;2023-03-23T17:17:08;48.50;;;19.83;;
25381;SDS011;16307;42.896;20.874;2023-03-23T17:19:54;41.65;;;17.65;;
25381;SDS011;16307;42.896;20.874;2023-03-23T17:22:41;32.25;;;15.73;;
25381;SDS011;16307;42.896;20.874;2023-03-23T17:25:27;36.72;;;16.45;;
25381;SDS011;16307;42.896;20.874;2023-03-23T17:28:15;37.65;;;15.95;;
25381;SDS011;16307;42.896;20.874;2023-03-23T17:31:04;35.85;;;14.32;;
25381;SDS011;16307;42.896;20.874;2023-03-23T17:33:51;30.50;;;13.35;;
25381;SDS011;16307;42.896;20.874;2023-03-23T17:36:37;37.08;;;16.77;;
25381;SDS011;16307;42.896;20.874;2023-03-23T17:39:23;38.08;;;15.40;;
25381;SDS011;16307;42.896;20.874;2023-03-23T17:42:09;32.67;;;16.67;;
25381;SDS011;16307;42.896;20.874;2023-03-23T17:44:55;35.88;;;16.95;;
25381;SDS011;16307;42.896;20.874;2023-03-23T17:47:41;47.08;;;19.75;;
25381;SDS011;16307;42.896;20.874;2023-03-23T17:50:27;55.15;;;23.13;;
25381;SDS011;16307;42.896;20.874;2023-03-23T17:53:13;52.92;;;22.33;;
25381;SDS011;16307;42.896;20.874;2023-03-23T17:56:00;57.42;;;23.40;;
25381;SDS011;16307;42.896;20.874;2023-03-23T17:58:46;67.38;;;21.83;;
25381;SDS011;16307;42.896;20.874;2023-03-23T18:01:32;26.55;;;11.85;;
25381;SDS011;16307;42.896;20.874;2023-03-23T18:04:18;19.58;;;9.38;;
25381;SDS011;16307;42.896;20.874;2023-03-23T18:07:04;28.80;;;10.75;;
25381;SDS011;16307;42.896;20.874;2023-03-23T18:09:50;30.50;;;12.80;;
25381;SDS011;16307;42.896;20.874;2023-03-23T18:12:37;32.05;;;14.65;;
25381;SDS011;16307;42.896;20.874;2023-03-23T18:15:24;47.92;;;19.65;;
25381;SDS011;16307;42.896;20.874;2023-03-23T18:18:28;67.07;;;23.77;;
25381;SDS011;16307;42.896;20.874;2023-03-23T18:21:14;74.97;;;25.83;;
25381;SDS011;16307;42.896;20.874;2023-03-23T18:24:01;65.72;;;28.02;;
25381;SDS011;16307;42.896;20.874;2023-03-23T18:26:48;80.85;;;30.42;;
25381;SDS011;16307;42.896;20.874;2023-03-23T18:29:34;69.43;;;28.58;;